createdAt,value
2017-10-06T00:00:16.402Z,0
2017-10-06T00:01:26.752Z,0
2017-10-06T00:02:37.107Z,0
2017-10-06T00:03:47.468Z,0
2017-10-06T00:04:57.885Z,0
2017-10-06T00:06:07.916Z,0
2017-10-06T00:07:18.272Z,0
2017-10-06T00:08:28.616Z,0
2017-10-06T00:09:38.645Z,0
2017-10-06T00:10:49.005Z,0
2017-10-06T00:11:59.362Z,0
2017-10-06T00:13:09.716Z,0
2017-10-06T00:14:19.750Z,0
2017-10-06T00:15:30.109Z,0
2017-10-06T00:16:40.451Z,0
2017-10-06T00:17:50.796Z,0
2017-10-06T00:19:01.156Z,0
2017-10-06T00:20:11.513Z,0
2017-10-06T00:21:21.534Z,0
2017-10-06T00:22:31.572Z,0
2017-10-06T00:23:41.599Z,0
2017-10-06T00:24:51.954Z,0
2017-10-06T00:26:02.305Z,0
2017-10-06T00:27:12.659Z,0
2017-10-06T00:28:23.005Z,0
2017-10-06T00:29:32.398Z,0
2017-10-06T00:30:42.447Z,0
2017-10-06T00:31:52.800Z,0
2017-10-06T00:33:02.833Z,0
2017-10-06T00:34:13.173Z,0
2017-10-06T00:35:23.691Z,0
2017-10-06T00:36:33.727Z,0
2017-10-06T00:37:43.439Z,0
2017-10-06T00:38:53.781Z,0
2017-10-06T00:40:03.877Z,0
2017-10-06T00:41:14.212Z,0
2017-10-06T00:42:24.597Z,0
2017-10-06T00:43:34.962Z,0
2017-10-06T00:44:45.332Z,0
2017-10-06T00:45:55.356Z,0
2017-10-06T00:47:05.700Z,0
2017-10-06T00:48:15.739Z,0
2017-10-06T00:49:25.452Z,0
2017-10-06T00:50:35.807Z,0
2017-10-06T00:51:46.166Z,0
2017-10-06T00:52:56.193Z,0
2017-10-06T00:54:06.553Z,0
2017-10-06T00:55:16.893Z,0
2017-10-06T00:56:27.247Z,0
2017-10-06T00:57:37.658Z,0
2017-10-06T00:58:47.687Z,0
2017-10-06T00:59:58.052Z,0
2017-10-06T01:01:08.101Z,0
2017-10-06T01:02:18.130Z,0
2017-10-06T01:03:28.478Z,0
2017-10-06T01:04:38.817Z,0
2017-10-06T01:05:48.850Z,0
2017-10-06T01:06:59.242Z,0
2017-10-06T01:08:09.590Z,0
2017-10-06T01:09:19.944Z,0
2017-10-06T01:10:29.984Z,0
2017-10-06T01:11:40.335Z,0
2017-10-06T01:12:50.036Z,0
2017-10-06T01:14:00.380Z,0
2017-10-06T01:15:10.774Z,0
2017-10-06T01:16:20.494Z,0
2017-10-06T01:17:30.524Z,0
2017-10-06T01:18:40.225Z,0
2017-10-06T01:19:50.574Z,0
2017-10-06T01:21:00.976Z,0
2017-10-06T01:22:11.322Z,0
2017-10-06T01:23:21.362Z,0
2017-10-06T01:24:31.380Z,0
2017-10-06T01:25:41.409Z,0
2017-10-06T01:26:51.434Z,0
2017-10-06T01:28:01.173Z,0
2017-10-06T01:29:11.541Z,0
2017-10-06T01:30:21.895Z,0
2017-10-06T01:31:32.241Z,0
2017-10-06T01:32:42.598Z,0
2017-10-06T01:33:52.640Z,0
2017-10-06T01:35:02.989Z,0
2017-10-06T01:36:13.027Z,0
2017-10-06T01:37:22.748Z,0
2017-10-06T01:38:32.785Z,0
2017-10-06T01:39:43.122Z,0
2017-10-06T01:40:53.160Z,0
2017-10-06T01:42:03.508Z,0
2017-10-06T01:43:13.860Z,0
2017-10-06T01:44:23.628Z,0
2017-10-06T01:45:33.958Z,0
2017-10-06T01:46:44.003Z,0
2017-10-06T01:47:54.376Z,0
2017-10-06T01:49:04.724Z,0
2017-10-06T01:50:15.073Z,0
2017-10-06T01:51:25.416Z,0
2017-10-06T01:52:35.757Z,0
2017-10-06T01:53:45.814Z,0
2017-10-06T01:54:55.844Z,0
2017-10-06T01:56:06.202Z,0
2017-10-06T01:57:16.556Z,0
2017-10-06T01:58:26.926Z,0
2017-10-06T01:59:36.963Z,0
2017-10-06T02:00:48.061Z,0
2017-10-06T02:01:58.476Z,0
2017-10-06T02:03:08.807Z,0
2017-10-06T02:04:18.531Z,0
2017-10-06T02:05:28.882Z,0
2017-10-06T02:06:39.226Z,0
2017-10-06T02:07:49.622Z,0
2017-10-06T02:09:00.023Z,0
2017-10-06T02:10:10.383Z,0
2017-10-06T02:11:20.737Z,0
2017-10-06T02:12:31.084Z,0
2017-10-06T02:13:41.438Z,0
2017-10-06T02:14:51.782Z,0
2017-10-06T02:16:02.117Z,0
2017-10-06T02:17:12.470Z,0
2017-10-06T02:18:22.500Z,0
2017-10-06T02:19:32.851Z,0
2017-10-06T02:20:42.900Z,0
2017-10-06T02:21:53.256Z,0
2017-10-06T02:23:03.612Z,0
2017-10-06T02:24:13.644Z,0
2017-10-06T02:25:23.736Z,0
2017-10-06T02:26:34.080Z,0
2017-10-06T02:27:44.444Z,0
2017-10-06T02:28:54.795Z,0
2017-10-06T02:30:05.201Z,0
2017-10-06T02:31:15.548Z,0
2017-10-06T02:32:25.904Z,0
2017-10-06T02:33:36.260Z,0
2017-10-06T02:34:46.278Z,0
2017-10-06T02:35:56.634Z,0
2017-10-06T02:37:07.044Z,0
2017-10-06T02:38:17.115Z,0
2017-10-06T02:39:27.456Z,0
2017-10-06T02:40:37.809Z,0
2017-10-06T02:41:48.170Z,0
2017-10-06T02:42:58.574Z,0
2017-10-06T02:44:08.606Z,0
2017-10-06T02:45:18.956Z,0
2017-10-06T02:46:29.303Z,0
2017-10-06T02:47:40.585Z,0
2017-10-06T02:48:50.646Z,0
2017-10-06T02:50:01.002Z,0
2017-10-06T02:51:11.356Z,0
2017-10-06T02:52:21.396Z,0
2017-10-06T02:53:31.747Z,0
2017-10-06T02:54:42.134Z,0
2017-10-06T02:55:52.184Z,0
2017-10-06T02:57:02.532Z,0
2017-10-06T02:58:12.883Z,0
2017-10-06T02:59:23.233Z,0
2017-10-06T03:00:33.570Z,0
2017-10-06T03:01:43.326Z,0
2017-10-06T03:33:32.651Z,0
2017-10-06T03:34:43.001Z,0
2017-10-06T03:35:53.335Z,0
2017-10-06T03:37:03.668Z,0
2017-10-06T03:38:13.993Z,0
2017-10-06T03:39:24.361Z,0
2017-10-06T03:40:34.736Z,0
2017-10-06T03:41:45.076Z,0
2017-10-06T03:42:55.434Z,0
2017-10-06T03:44:05.836Z,0
2017-10-06T03:45:16.243Z,0
2017-10-06T03:46:26.255Z,0
2017-10-06T03:47:36.607Z,0
2017-10-06T03:48:46.966Z,0
2017-10-06T03:49:57.315Z,0
2017-10-06T03:51:07.705Z,0
2017-10-06T03:52:18.052Z,0
2017-10-06T03:53:28.084Z,0
2017-10-06T03:54:38.451Z,0
2017-10-06T03:55:48.801Z,0
2017-10-06T03:56:59.151Z,0
2017-10-06T03:58:09.512Z,0
2017-10-06T03:59:19.875Z,0
2017-10-06T04:00:30.244Z,0
2017-10-06T04:01:40.277Z,0
2017-10-06T04:02:50.681Z,0
2017-10-06T04:04:00.720Z,0
2017-10-06T04:05:11.077Z,0
2017-10-06T04:06:21.102Z,0
2017-10-06T04:07:31.463Z,0
2017-10-06T04:08:41.832Z,0
2017-10-06T04:09:52.181Z,0
2017-10-06T04:11:02.207Z,0
2017-10-06T04:12:12.564Z,0
2017-10-06T04:13:22.930Z,0
2017-10-06T04:14:33.266Z,0
2017-10-06T04:15:43.304Z,0
2017-10-06T04:16:53.016Z,0
2017-10-06T04:18:03.375Z,0
2017-10-06T04:19:13.400Z,0
2017-10-06T04:20:23.796Z,0
2017-10-06T04:21:34.147Z,0
2017-10-06T04:22:44.512Z,0
2017-10-06T04:23:54.860Z,0
2017-10-06T04:25:05.216Z,0
2017-10-06T04:26:15.304Z,0
2017-10-06T04:27:25.666Z,0
2017-10-06T04:28:36.002Z,0
2017-10-06T04:29:46.068Z,0
2017-10-06T04:30:56.117Z,0
2017-10-06T04:32:06.550Z,0
2017-10-06T04:33:16.589Z,0
2017-10-06T04:34:26.939Z,0
2017-10-06T04:35:36.974Z,0
2017-10-06T04:36:47.310Z,0
2017-10-06T04:37:57.657Z,0
2017-10-06T04:39:08.009Z,0
2017-10-06T04:40:18.354Z,0
2017-10-06T04:41:28.765Z,0
2017-10-06T04:42:39.118Z,0
2017-10-06T04:43:49.165Z,0
2017-10-06T04:44:59.566Z,0
2017-10-06T04:46:09.287Z,0
2017-10-06T04:47:19.632Z,0
2017-10-06T04:48:29.995Z,0
2017-10-06T04:49:40.361Z,0
2017-10-06T04:50:50.720Z,0
2017-10-06T04:52:01.075Z,0
2017-10-06T04:53:11.420Z,0
2017-10-06T04:54:21.779Z,0
2017-10-06T04:55:32.136Z,0
2017-10-06T04:56:42.162Z,0
2017-10-06T04:57:52.528Z,0
2017-10-06T04:59:02.922Z,0
2017-10-06T05:00:13.291Z,0
2017-10-06T05:01:23.051Z,0
2017-10-06T05:02:33.393Z,5
2017-10-06T05:03:43.424Z,5
2017-10-06T05:04:53.460Z,5
2017-10-06T05:06:03.810Z,5
2017-10-06T05:07:14.163Z,5
2017-10-06T05:08:24.195Z,5
2017-10-06T05:09:34.224Z,5
2017-10-06T05:10:44.578Z,10
2017-10-06T05:11:54.944Z,10
2017-10-06T05:13:05.274Z,10
2017-10-06T05:14:15.640Z,10
2017-10-06T05:15:25.987Z,10
2017-10-06T05:16:36.331Z,10
2017-10-06T05:17:46.731Z,15
2017-10-06T05:18:57.107Z,15
2017-10-06T05:20:07.480Z,15
2017-10-06T05:21:17.833Z,20
2017-10-06T05:22:27.861Z,20
2017-10-06T05:23:38.219Z,20
2017-10-06T05:24:48.578Z,25
2017-10-06T05:25:58.942Z,25
2017-10-06T05:27:09.300Z,30
2017-10-06T05:28:19.642Z,25
2017-10-06T05:29:29.996Z,25
2017-10-06T05:30:40.374Z,30
2017-10-06T05:31:50.404Z,30
2017-10-06T05:33:00.440Z,35
2017-10-06T05:34:10.785Z,40
2017-10-06T05:35:20.823Z,35
2017-10-06T05:36:31.190Z,40
2017-10-06T05:37:41.525Z,40
2017-10-06T05:38:51.913Z,40
2017-10-06T05:40:02.273Z,40
2017-10-06T05:41:12.317Z,40
2017-10-06T05:42:22.703Z,45
2017-10-06T05:43:33.053Z,45
2017-10-06T05:44:43.088Z,45
2017-10-06T05:45:53.118Z,45
2017-10-06T05:47:03.461Z,45
2017-10-06T05:48:13.863Z,50
2017-10-06T05:49:24.239Z,50
2017-10-06T05:50:34.296Z,55
2017-10-06T05:51:44.641Z,60
2017-10-06T05:52:54.691Z,55
2017-10-06T05:54:05.059Z,55
2017-10-06T05:55:15.453Z,60
2017-10-06T05:56:25.489Z,60
2017-10-06T05:57:35.835Z,60
2017-10-06T05:58:46.193Z,65
2017-10-06T05:59:56.259Z,60
2017-10-06T06:01:06.616Z,60
2017-10-06T06:02:16.654Z,60
2017-10-06T06:03:27.004Z,55
2017-10-06T06:04:37.041Z,55
2017-10-06T06:05:47.408Z,65
2017-10-06T06:06:57.752Z,55
2017-10-06T06:08:07.789Z,55
2017-10-06T06:09:18.128Z,55
2017-10-06T06:10:28.280Z,55
2017-10-06T06:11:38.643Z,55
2017-10-06T06:12:49.006Z,65
2017-10-06T06:13:59.348Z,65
2017-10-06T06:15:09.702Z,65
2017-10-06T06:16:20.055Z,70
2017-10-06T06:17:30.083Z,70
2017-10-06T06:18:40.437Z,70
2017-10-06T06:19:50.792Z,70
2017-10-06T06:21:01.138Z,75
2017-10-06T06:22:11.218Z,75
2017-10-06T06:23:21.236Z,80
2017-10-06T06:24:31.606Z,90
2017-10-06T06:25:41.667Z,85
2017-10-06T06:26:52.023Z,85
2017-10-06T06:28:02.094Z,80
2017-10-06T06:29:12.453Z,80
2017-10-06T06:30:22.814Z,75
2017-10-06T06:31:33.171Z,75
2017-10-06T06:32:43.519Z,95
2017-10-06T06:33:53.242Z,100
2017-10-06T06:35:03.578Z,95
2017-10-06T06:36:13.945Z,95
2017-10-06T06:37:23.980Z,95
2017-10-06T06:38:34.317Z,75
2017-10-06T06:39:44.660Z,100
2017-10-06T06:40:54.696Z,105
2017-10-06T06:42:04.753Z,110
2017-10-06T06:43:14.472Z,110
2017-10-06T06:44:24.514Z,110
2017-10-06T06:45:34.862Z,100
2017-10-06T06:46:45.220Z,100
2017-10-06T06:47:55.592Z,100
2017-10-06T06:49:05.614Z,105
2017-10-06T06:50:15.649Z,95
2017-10-06T06:51:25.992Z,100
2017-10-06T06:52:36.350Z,100
2017-10-06T06:53:46.712Z,90
2017-10-06T06:54:57.077Z,105
2017-10-06T06:56:07.434Z,115
2017-10-06T06:57:17.778Z,125
2017-10-06T06:58:28.125Z,140
2017-10-06T06:59:38.153Z,160
2017-10-06T07:00:48.519Z,160
2017-10-06T07:01:58.228Z,160
2017-10-06T07:03:08.252Z,150
2017-10-06T07:04:18.287Z,125
2017-10-06T07:05:28.314Z,120
2017-10-06T07:06:38.670Z,115
2017-10-06T07:07:49.078Z,120
2017-10-06T07:08:59.455Z,145
2017-10-06T07:10:09.489Z,150
2017-10-06T07:11:19.523Z,145
2017-10-06T07:12:29.559Z,140
2017-10-06T07:13:39.931Z,120
2017-10-06T07:14:50.273Z,110
2017-10-06T07:16:00.334Z,95
2017-10-06T07:17:10.693Z,100
2017-10-06T07:18:21.044Z,100
2017-10-06T07:19:31.408Z,105
2017-10-06T07:20:41.448Z,125
2017-10-06T07:21:51.841Z,125
2017-10-06T07:23:01.865Z,125
2017-10-06T07:24:12.277Z,120
2017-10-06T07:25:22.624Z,105
2017-10-06T07:26:32.983Z,125
2017-10-06T07:27:43.502Z,105
2017-10-06T07:28:53.835Z,125
2017-10-06T07:30:04.203Z,125
2017-10-06T07:31:14.545Z,125
2017-10-06T07:32:24.906Z,125
2017-10-06T07:33:35.255Z,130
2017-10-06T07:34:44.988Z,130
2017-10-06T07:35:55.329Z,130
2017-10-06T07:37:05.672Z,130
2017-10-06T07:38:16.017Z,135
2017-10-06T07:39:26.039Z,135
2017-10-06T07:40:36.402Z,140
2017-10-06T07:41:46.771Z,140
2017-10-06T07:42:56.813Z,140
2017-10-06T07:44:07.181Z,140
2017-10-06T07:45:17.519Z,140
2017-10-06T07:46:27.551Z,140
2017-10-06T07:47:37.576Z,140
2017-10-06T07:48:47.614Z,85
2017-10-06T07:49:58.010Z,140
2017-10-06T07:51:08.598Z,145
2017-10-06T07:52:18.963Z,145
2017-10-06T07:53:29.308Z,150
2017-10-06T07:54:39.657Z,115
2017-10-06T07:55:50.060Z,90
2017-10-06T07:57:00.416Z,150
2017-10-06T07:58:10.449Z,150
2017-10-06T07:59:20.802Z,150
2017-10-06T08:00:30.857Z,150
2017-10-06T08:01:41.200Z,155
2017-10-06T08:02:51.567Z,155
2017-10-06T08:04:01.928Z,155
2017-10-06T08:05:11.956Z,155
2017-10-06T08:06:22.006Z,155
2017-10-06T08:07:32.056Z,155
2017-10-06T08:08:42.417Z,155
2017-10-06T08:09:52.751Z,160
2017-10-06T08:11:02.788Z,160
2017-10-06T08:12:12.510Z,155
2017-10-06T08:13:22.921Z,160
2017-10-06T08:14:33.280Z,165
2017-10-06T08:15:43.317Z,175
2017-10-06T08:16:53.342Z,170
2017-10-06T08:18:03.367Z,170
2017-10-06T08:19:13.402Z,175
2017-10-06T08:20:23.760Z,175
2017-10-06T08:21:34.113Z,180
2017-10-06T08:22:44.488Z,180
2017-10-06T08:23:54.836Z,180
2017-10-06T08:25:04.923Z,180
2017-10-06T08:26:14.942Z,195
2017-10-06T08:27:24.972Z,200
2017-10-06T08:28:35.024Z,200
2017-10-06T08:29:45.368Z,195
2017-10-06T08:30:55.852Z,210
2017-10-06T08:32:06.372Z,180
2017-10-06T08:33:16.747Z,205
2017-10-06T08:34:26.793Z,180
2017-10-06T08:35:37.163Z,205
2017-10-06T08:36:47.597Z,200
2017-10-06T08:37:57.973Z,200
2017-10-06T08:39:08.330Z,200
2017-10-06T08:40:18.684Z,200
2017-10-06T08:41:28.732Z,210
2017-10-06T08:42:39.086Z,200
2017-10-06T08:43:49.147Z,195
2017-10-06T08:44:59.492Z,200
2017-10-06T08:46:09.556Z,195
2017-10-06T08:47:19.610Z,110
2017-10-06T08:48:29.988Z,205
2017-10-06T08:49:40.330Z,215
2017-10-06T08:50:50.707Z,215
2017-10-06T08:52:01.058Z,230
2017-10-06T08:53:11.417Z,180
2017-10-06T08:54:21.452Z,165
2017-10-06T08:55:31.827Z,180
2017-10-06T08:56:41.537Z,195
2017-10-06T08:57:51.907Z,140
2017-10-06T08:59:02.257Z,135
2017-10-06T09:00:12.361Z,120
2017-10-06T09:01:22.715Z,125
2017-10-06T09:02:33.060Z,130
2017-10-06T09:03:43.434Z,130
2017-10-06T09:04:53.781Z,110
2017-10-06T09:06:03.874Z,100
2017-10-06T09:07:13.605Z,105
2017-10-06T09:08:23.974Z,110
2017-10-06T09:09:34.336Z,115
2017-10-06T09:10:44.373Z,110
2017-10-06T09:11:54.776Z,115
2017-10-06T09:13:05.122Z,130
2017-10-06T09:14:15.180Z,135
2017-10-06T09:15:25.515Z,145
2017-10-06T09:16:35.881Z,160
2017-10-06T09:17:46.237Z,195
2017-10-06T09:18:56.584Z,235
2017-10-06T09:20:06.622Z,190
2017-10-06T09:21:16.978Z,215
2017-10-06T09:22:27.036Z,210
2017-10-06T09:23:37.139Z,300
2017-10-06T09:24:47.513Z,230
2017-10-06T09:25:57.890Z,180
2017-10-06T09:27:08.296Z,160
2017-10-06T09:28:18.665Z,160
2017-10-06T09:29:28.390Z,115
2017-10-06T09:30:38.428Z,120
2017-10-06T09:31:48.793Z,90
2017-10-06T09:32:59.695Z,80
2017-10-06T09:34:10.058Z,75
2017-10-06T09:35:20.091Z,75
2017-10-06T09:36:30.481Z,75
2017-10-06T09:37:40.889Z,75
2017-10-06T09:38:51.249Z,75
2017-10-06T09:40:04.358Z,75
2017-10-06T09:41:14.963Z,75
2017-10-06T09:42:25.002Z,80
2017-10-06T09:43:35.046Z,85
2017-10-06T09:44:45.426Z,90
2017-10-06T09:45:55.470Z,90
2017-10-06T09:47:05.862Z,85
2017-10-06T09:48:16.217Z,85
2017-10-06T09:49:26.589Z,90
2017-10-06T09:50:36.952Z,85
2017-10-06T09:51:47.025Z,80
2017-10-06T09:52:57.404Z,75
2017-10-06T09:54:07.459Z,70
2017-10-06T09:55:17.822Z,65
2017-10-06T09:56:28.198Z,60
2017-10-06T09:57:38.570Z,60
2017-10-06T09:58:49.514Z,60
2017-10-06T09:59:59.990Z,65
2017-10-06T10:01:10.466Z,70
2017-10-06T10:02:20.507Z,80
2017-10-06T10:03:30.864Z,85
2017-10-06T10:04:41.240Z,90
2017-10-06T10:05:51.260Z,90
2017-10-06T10:07:01.649Z,80
2017-10-06T10:08:12.017Z,65
2017-10-06T10:09:22.430Z,65
2017-10-06T10:10:32.799Z,65
2017-10-06T10:11:42.867Z,75
2017-10-06T10:12:52.942Z,85
2017-10-06T10:14:03.343Z,90
2017-10-06T10:15:13.729Z,95
2017-10-06T10:16:25.725Z,100
2017-10-06T10:17:36.097Z,105
2017-10-06T10:18:46.212Z,115
2017-10-06T10:19:56.611Z,120
2017-10-06T10:21:06.991Z,115
2017-10-06T10:22:17.394Z,110
2017-10-06T10:23:27.751Z,105
2017-10-06T10:24:38.125Z,105
2017-10-06T10:25:48.500Z,100
2017-10-06T10:26:58.892Z,100
2017-10-06T10:28:09.257Z,100
2017-10-06T10:29:19.613Z,95
2017-10-06T10:30:29.987Z,95
2017-10-06T10:31:39.719Z,105
2017-10-06T10:32:49.754Z,65
2017-10-06T10:34:00.117Z,55
2017-10-06T10:35:10.160Z,50
2017-10-06T10:36:20.202Z,40
2017-10-06T10:37:30.558Z,40
2017-10-06T10:38:40.605Z,40
2017-10-06T10:39:50.985Z,45
2017-10-06T10:41:01.353Z,50
2017-10-06T10:42:11.710Z,55
2017-10-06T10:43:22.064Z,55
2017-10-06T10:44:32.450Z,55
2017-10-06T10:45:42.541Z,50
2017-10-06T10:46:52.894Z,50
2017-10-06T10:48:03.265Z,45
2017-10-06T10:49:13.631Z,45
2017-10-06T10:50:23.361Z,40
2017-10-06T10:51:33.772Z,40
2017-10-06T10:52:44.122Z,40
2017-10-06T10:53:54.184Z,40
2017-10-06T10:55:04.556Z,40
2017-10-06T10:56:14.921Z,40
2017-10-06T10:57:25.326Z,40
2017-10-06T10:58:35.689Z,40
2017-10-06T10:59:46.068Z,45
2017-10-06T11:00:56.449Z,45
2017-10-06T11:02:06.825Z,45
2017-10-06T11:03:17.199Z,50
2017-10-06T11:04:27.573Z,55
2017-10-06T11:05:37.616Z,60
2017-10-06T11:06:47.967Z,65
2017-10-06T11:07:58.344Z,70
2017-10-06T11:09:08.396Z,75
2017-10-06T11:10:18.754Z,80
2017-10-06T11:11:29.140Z,85
2017-10-06T11:12:39.513Z,80
2017-10-06T11:13:49.561Z,70
2017-10-06T11:14:59.990Z,60
2017-10-06T11:16:10.370Z,55
2017-10-06T11:17:20.737Z,45
2017-10-06T11:18:30.464Z,40
2017-10-06T11:19:40.523Z,40
2017-10-06T11:20:51.435Z,40
2017-10-06T11:22:01.834Z,40
2017-10-06T11:23:12.224Z,40
2017-10-06T11:24:22.584Z,40
2017-10-06T11:25:32.983Z,40
2017-10-06T11:26:43.411Z,40
2017-10-06T11:27:53.836Z,40
2017-10-06T11:29:04.230Z,40
2017-10-06T11:30:14.290Z,40
2017-10-06T11:31:24.409Z,40
2017-10-06T11:32:34.780Z,40
2017-10-06T11:33:44.969Z,40
2017-10-06T11:34:55.376Z,40
2017-10-06T11:36:05.754Z,40
2017-10-06T11:37:16.121Z,40
2017-10-06T11:38:26.476Z,40
2017-10-06T11:39:36.931Z,40
2017-10-06T11:40:47.333Z,45
2017-10-06T11:41:57.756Z,50
2017-10-06T11:43:08.188Z,55
2017-10-06T11:44:18.258Z,60
2017-10-06T11:45:28.311Z,65
2017-10-06T11:46:38.383Z,70
2017-10-06T11:47:48.763Z,75
2017-10-06T11:48:59.222Z,70
2017-10-06T11:50:09.598Z,70
2017-10-06T11:51:19.983Z,70
2017-10-06T11:52:30.052Z,75
2017-10-06T11:53:40.420Z,70
2017-10-06T11:54:50.463Z,70
2017-10-06T11:56:00.559Z,65
2017-10-06T11:57:10.599Z,65
2017-10-06T11:58:20.992Z,60
2017-10-06T11:59:31.049Z,50
2017-10-06T12:00:41.461Z,50
2017-10-06T12:01:51.850Z,45
2017-10-06T12:03:02.277Z,45
2017-10-06T12:04:12.351Z,45
2017-10-06T12:05:22.431Z,45
2017-10-06T12:06:32.866Z,45
2017-10-06T12:07:43.242Z,45
2017-10-06T12:08:53.634Z,45
2017-10-06T12:10:04.022Z,55
2017-10-06T12:11:14.407Z,55
2017-10-06T12:12:24.802Z,60
2017-10-06T12:13:34.864Z,60
2017-10-06T12:14:45.234Z,55
2017-10-06T12:15:55.310Z,55
2017-10-06T12:17:05.688Z,60
2017-10-06T12:18:16.379Z,60
2017-10-06T12:19:26.770Z,50
2017-10-06T12:20:37.148Z,45
2017-10-06T12:21:47.529Z,55
2017-10-06T12:22:57.913Z,70
2017-10-06T12:24:08.463Z,95
2017-10-06T12:25:18.818Z,120
2017-10-06T12:26:28.902Z,170
2017-10-06T12:27:39.047Z,170
2017-10-06T12:28:49.265Z,145
2017-10-06T12:29:59.706Z,120
2017-10-06T12:31:09.797Z,90
2017-10-06T12:32:19.856Z,65
2017-10-06T12:33:30.256Z,40
2017-10-06T12:34:40.631Z,40
2017-10-06T12:35:50.383Z,45
2017-10-06T12:37:00.808Z,60
2017-10-06T12:38:11.242Z,80
2017-10-06T12:39:25.664Z,100
2017-10-06T12:40:41.219Z,115
2017-10-06T12:41:55.873Z,120
2017-10-06T12:43:10.899Z,135
2017-10-06T12:44:25.701Z,145
2017-10-06T12:45:40.824Z,145
2017-10-06T12:46:55.591Z,150
2017-10-06T12:48:06.662Z,160
2017-10-06T12:49:17.013Z,145
2017-10-06T12:50:27.044Z,140
2017-10-06T12:51:37.437Z,130
2017-10-06T12:52:47.861Z,125
2017-10-06T12:53:58.225Z,115
2017-10-06T12:55:08.257Z,110
2017-10-06T12:56:19.193Z,110
2017-10-06T12:57:29.234Z,100
2017-10-06T12:58:39.601Z,95
2017-10-06T12:59:49.970Z,100
2017-10-06T13:01:00.336Z,125
2017-10-06T13:02:10.748Z,145
2017-10-06T13:03:21.101Z,120
2017-10-06T13:04:31.495Z,110
2017-10-06T13:05:41.862Z,115
2017-10-06T13:06:52.234Z,165
2017-10-06T13:08:02.593Z,120
2017-10-06T13:09:12.970Z,105
2017-10-06T13:10:23.799Z,100
2017-10-06T13:11:33.542Z,115
2017-10-06T13:12:43.907Z,135
2017-10-06T13:13:53.984Z,135
2017-10-06T13:15:04.030Z,150
2017-10-06T13:16:14.453Z,115
2017-10-06T13:17:24.806Z,125
2017-10-06T13:18:34.856Z,95
2017-10-06T13:19:45.220Z,85
2017-10-06T13:20:55.584Z,80
2017-10-06T13:22:05.944Z,85
2017-10-06T13:23:15.993Z,85
2017-10-06T13:24:26.037Z,85
2017-10-06T13:25:36.391Z,90
2017-10-06T13:26:46.751Z,95
2017-10-06T13:27:57.116Z,100
2017-10-06T13:29:07.501Z,105
2017-10-06T13:30:17.868Z,110
2017-10-06T13:31:27.576Z,115
2017-10-06T13:32:37.924Z,115
2017-10-06T13:33:48.345Z,120
2017-10-06T13:34:58.388Z,115
2017-10-06T13:36:08.767Z,95
2017-10-06T13:37:19.124Z,90
2017-10-06T13:38:29.177Z,95
2017-10-06T13:39:39.582Z,95
2017-10-06T13:40:49.631Z,80
2017-10-06T13:41:59.669Z,70
2017-10-06T13:43:10.034Z,70
2017-10-06T13:44:20.414Z,70
2017-10-06T13:45:30.778Z,85
2017-10-06T13:46:41.167Z,110
2017-10-06T13:47:51.523Z,110
2017-10-06T13:49:01.888Z,100
2017-10-06T13:50:12.275Z,105
2017-10-06T13:51:22.680Z,95
2017-10-06T13:52:33.039Z,100
2017-10-06T13:53:43.131Z,105
2017-10-06T13:54:53.539Z,115
2017-10-06T13:56:03.977Z,110
2017-10-06T13:57:14.469Z,95
2017-10-06T13:58:24.898Z,100
2017-10-06T13:59:34.622Z,100
2017-10-06T14:00:44.995Z,100
2017-10-06T14:01:55.370Z,115
2017-10-06T14:03:05.734Z,115
2017-10-06T14:04:15.777Z,110
2017-10-06T14:05:25.817Z,105
2017-10-06T14:06:36.179Z,105
2017-10-06T14:07:46.226Z,105
2017-10-06T14:08:56.315Z,105
2017-10-06T14:10:06.673Z,100
2017-10-06T14:11:17.026Z,105
2017-10-06T14:12:27.370Z,105
2017-10-06T14:13:37.720Z,105
2017-10-06T14:14:47.771Z,100
2017-10-06T14:15:58.128Z,100
2017-10-06T14:17:08.482Z,95
2017-10-06T14:18:19.064Z,95
2017-10-06T14:19:29.123Z,85
2017-10-06T14:20:38.896Z,90
2017-10-06T14:21:49.348Z,95
2017-10-06T14:22:59.718Z,90
2017-10-06T14:24:10.086Z,90
2017-10-06T14:25:21.226Z,85
2017-10-06T14:26:31.655Z,80
2017-10-06T14:27:42.043Z,80
2017-10-06T14:28:52.414Z,80
2017-10-06T14:30:02.487Z,85
2017-10-06T14:31:12.865Z,90
2017-10-06T14:32:23.280Z,90
2017-10-06T14:33:33.656Z,85
2017-10-06T14:34:44.033Z,80
2017-10-06T14:35:54.408Z,85
2017-10-06T14:37:04.789Z,90
2017-10-06T14:38:15.206Z,90
2017-10-06T14:39:25.575Z,90
2017-10-06T14:40:35.944Z,85
2017-10-06T14:41:46.325Z,95
2017-10-06T14:42:56.382Z,95
2017-10-06T14:44:06.790Z,95
2017-10-06T14:45:17.177Z,90
2017-10-06T14:46:27.560Z,95
2017-10-06T14:47:37.939Z,80
2017-10-06T14:48:48.329Z,80
2017-10-06T14:49:58.752Z,80
2017-10-06T14:51:09.140Z,75
2017-10-06T14:52:19.525Z,80
2017-10-06T14:53:29.888Z,85
2017-10-06T14:54:40.256Z,75
2017-10-06T14:55:50.686Z,70
2017-10-06T14:57:01.073Z,70
2017-10-06T14:58:11.105Z,65
2017-10-06T14:59:21.471Z,70
2017-10-06T15:00:31.858Z,65
2017-10-06T15:01:41.963Z,60
2017-10-06T15:02:52.313Z,65
2017-10-06T15:04:02.674Z,60
2017-10-06T15:05:13.042Z,65
2017-10-06T15:06:23.420Z,60
2017-10-06T15:07:33.483Z,60
2017-10-06T15:08:43.531Z,55
2017-10-06T15:09:53.920Z,55
2017-10-06T15:11:03.973Z,55
2017-10-06T15:12:14.371Z,55
2017-10-06T15:13:24.742Z,55
2017-10-06T15:14:35.097Z,55
2017-10-06T15:15:45.454Z,50
2017-10-06T15:16:55.826Z,50
2017-10-06T15:18:07.352Z,50
2017-10-06T15:19:17.439Z,50
2017-10-06T15:20:27.820Z,50
2017-10-06T15:21:38.183Z,50
2017-10-06T15:22:48.540Z,45
2017-10-06T15:23:58.921Z,50
2017-10-06T15:25:09.044Z,50
2017-10-06T15:26:19.461Z,45
2017-10-06T15:27:29.877Z,45
2017-10-06T15:28:40.254Z,50
2017-10-06T15:29:50.309Z,45
2017-10-06T15:31:00.769Z,45
2017-10-06T15:32:11.499Z,45
2017-10-06T15:33:21.625Z,45
2017-10-06T15:34:31.745Z,45
2017-10-06T15:35:42.137Z,40
2017-10-06T15:36:52.589Z,40
2017-10-06T15:38:03.011Z,40
2017-10-06T15:39:13.410Z,40
2017-10-06T15:40:23.795Z,35
2017-10-06T15:41:34.185Z,35
2017-10-06T15:42:44.578Z,35
2017-10-06T15:43:54.950Z,35
2017-10-06T15:45:05.330Z,35
2017-10-06T15:46:15.705Z,35
2017-10-06T15:47:26.071Z,35
2017-10-06T15:48:36.506Z,30
2017-10-06T15:49:46.864Z,30
2017-10-06T15:50:57.239Z,30
2017-10-06T15:52:07.605Z,30
2017-10-06T15:53:17.990Z,30
2017-10-06T15:54:29.431Z,25
2017-10-06T15:55:39.843Z,25
2017-10-06T15:56:49.918Z,25
2017-10-06T15:57:59.989Z,25
2017-10-06T15:59:10.371Z,20
2017-10-06T16:00:20.789Z,20
2017-10-06T16:01:31.191Z,20
2017-10-06T16:02:41.566Z,20
2017-10-06T16:03:51.957Z,15
2017-10-06T16:05:02.369Z,15
2017-10-06T16:06:12.788Z,15
2017-10-06T16:07:23.159Z,15
2017-10-06T16:08:33.528Z,15
2017-10-06T16:09:43.914Z,10
2017-10-06T16:10:54.298Z,10
2017-10-06T16:12:04.724Z,10
2017-10-06T16:13:15.905Z,10
2017-10-06T16:14:26.274Z,10
2017-10-06T16:15:36.328Z,5
2017-10-06T16:16:46.697Z,5
2017-10-06T16:17:57.088Z,5
2017-10-06T16:19:07.474Z,5
2017-10-06T16:20:17.846Z,5
2017-10-06T16:21:28.219Z,5
2017-10-06T16:22:38.575Z,5
2017-10-06T16:23:48.669Z,0
2017-10-06T16:24:58.725Z,0
2017-10-06T16:26:09.128Z,0
2017-10-06T16:27:19.180Z,0
2017-10-06T16:28:29.254Z,0
2017-10-06T16:29:39.670Z,0
2017-10-06T16:30:50.065Z,0
2017-10-06T16:32:00.435Z,0
2017-10-06T16:33:10.805Z,0
2017-10-06T16:34:20.846Z,0
2017-10-06T16:35:30.960Z,0
2017-10-06T16:36:41.325Z,0
2017-10-06T16:37:51.390Z,0
2017-10-06T16:39:01.766Z,0
2017-10-06T16:40:12.167Z,0
2017-10-06T16:41:22.587Z,0
2017-10-06T16:42:32.635Z,0
2017-10-06T16:43:42.690Z,0
2017-10-06T16:44:53.047Z,0
2017-10-06T16:46:03.440Z,0
2017-10-06T16:47:13.990Z,0
2017-10-06T16:48:24.368Z,0
2017-10-06T16:49:34.410Z,0
2017-10-06T16:50:44.803Z,0
2017-10-06T16:51:55.177Z,0
2017-10-06T16:53:05.553Z,0
2017-10-06T16:54:15.931Z,0
2017-10-06T16:55:26.328Z,0
2017-10-06T16:56:36.714Z,0
2017-10-06T16:57:46.774Z,0
2017-10-06T16:58:57.163Z,0
2017-10-06T17:00:07.559Z,0
2017-10-06T17:01:17.994Z,0
2017-10-06T17:02:28.377Z,0
2017-10-06T17:03:38.411Z,0
2017-10-06T17:04:48.161Z,0
2017-10-06T17:05:58.241Z,0
2017-10-06T17:07:08.633Z,0
2017-10-06T17:08:18.670Z,0
2017-10-06T17:09:28.734Z,0
2017-10-06T17:10:39.117Z,0
2017-10-06T17:11:49.529Z,0
2017-10-06T17:12:59.636Z,0
2017-10-06T17:14:10.019Z,0
2017-10-06T17:15:20.401Z,0
2017-10-06T17:16:30.475Z,0